Forest Lake, Michigan
Current Conditions -  °F | °C
As of 3:35 PM on Tuesday 25 Nov 2014 (Local Time) from KISQ Reporting Station
Overcast Overcast  
Wind Chill: 18°   Ceiling: 3600
Heat Index: 28°   Visibility: 10mi
Dew Point: 20°   Wind: 10mph
Humidity: 74%   Direction: 300°WNW
Pressure: 29.97"   Gusts: NA
Location:  46.4479°N, 86.4779°W
Report Text: KISQ 252035Z AUTO 30009KT 10SM OVC036 M02/M07 A2997 RMK AO2 T10251066
Loading
Personal Weather Stations






























Interactive Weather Map New forecast layout! Learn more

10-Day Weather Forecast

Advertisements
Track Severe Weather on mobile